Oakwood, Ohio
Current Conditions -  °F | °C
As of 1:53 PM on Sunday 21 Dec 2014 (Local Time) from KDFI Reporting Station
Haze Haze  
Wind Chill: 29°   Ceiling: 2000
Heat Index: 35°   Visibility: 6mi
Dew Point: 26°   Wind: 7mph
Humidity: 70%   Direction: 180°S
Pressure: 30.23"   Gusts: NA
Location:  41.1°N, 84.38°W
Report Text: KDFI 211853Z AUTO 18006KT 6SM HZ BKN020 OVC055 02/M03 A3023 RMK AO2 SLP246 T00171033 TSNO
Loading
Personal Weather Stations






























Interactive Weather Map New forecast layout! Learn more

10-Day Weather Forecast

Advertisements
Track Severe Weather on mobile